createdAt,value
2022-12-09T00:04:58.612Z,100892.47
2022-12-09T00:09:59.576Z,100892.19
2022-12-09T00:15:04.465Z,100908.53
2022-12-09T00:20:06.576Z,100910.44
2022-12-09T00:25:12.227Z,100883.41
2022-12-09T00:30:14.552Z,100880.97
2022-12-09T00:35:13.694Z,100879.00
2022-12-09T00:40:15.397Z,100906.44
2022-12-09T00:45:15.961Z,100908.03
2022-12-09T00:50:15.028Z,100903.50
2022-12-09T00:55:17.420Z,100915.84
2022-12-09T01:00:21.066Z,100918.22
2022-12-09T01:05:20.163Z,100921.63
2022-12-09T01:10:22.974Z,100934.19
2022-12-09T01:15:32.650Z,100918.75
2022-12-09T01:20:36.918Z,100916.28
2022-12-09T01:25:39.469Z,100916.97
2022-12-09T01:30:40.691Z,100918.69
2022-12-09T01:35:44.749Z,100940.16
2022-12-09T01:40:49.016Z,100935.91
2022-12-09T01:45:49.742Z,100929.59
2022-12-09T01:50:54.389Z,100948.22
2022-12-09T01:55:56.977Z,100909.56
2022-12-09T02:00:58.035Z,100920.59
2022-12-09T02:05:57.408Z,100910.69
2022-12-09T02:11:09.183Z,100912.88
2022-12-09T02:16:18.977Z,100899.84
2022-12-09T02:21:25.952Z,100909.72
2022-12-09T02:26:39.807Z,100917.97
2022-12-09T02:32:11.571Z,100902.81
2022-12-09T02:37:22.630Z,100902.19
2022-12-09T02:42:30.090Z,100902.34
2022-12-09T02:47:37.031Z,100896.94
2022-12-09T02:52:46.789Z,100905.31
2022-12-09T02:57:47.384Z,100918.56
2022-12-09T03:02:51.516Z,100909.28
2022-12-09T03:08:01.812Z,100935.63
2022-12-09T03:13:06.916Z,100912.97
2022-12-09T03:18:11.060Z,100905.63
2022-12-09T03:23:16.274Z,100906.09
2022-12-09T03:28:22.931Z,100910.03
2022-12-09T03:33:24.526Z,100910.88
2022-12-09T03:38:33.212Z,100916.84
2022-12-09T03:43:36.583Z,100922.69
2022-12-09T03:48:35.916Z,100919.44
2022-12-09T03:53:44.380Z,100916.84
2022-12-09T03:58:46.509Z,100928.19
2022-12-09T04:03:46.579Z,100944.97
2022-12-09T04:08:49.568Z,100950.91
2022-12-09T04:13:48.875Z,100938.94
2022-12-09T04:18:51.280Z,100934.88
2022-12-09T04:23:52.185Z,100958.66
2022-12-09T04:28:52.075Z,100923.81
2022-12-09T04:33:51.446Z,100922.72
2022-12-09T04:38:51.891Z,100930.56
2022-12-09T04:43:51.050Z,100936.81
2022-12-09T04:48:50.523Z,100946.56
2022-12-09T04:53:50.037Z,100947.03
2022-12-09T04:58:51.859Z,100939.91
2022-12-09T05:03:55.004Z,100948.38
2022-12-09T05:08:54.961Z,100948.34
2022-12-09T05:13:58.671Z,100951.25
2022-12-09T05:19:01.731Z,100961.66
2022-12-09T05:24:04.432Z,100965.22
2022-12-09T05:29:06.504Z,100965.19
2022-12-09T05:34:09.376Z,100966.47
2022-12-09T05:39:15.845Z,100957.31
2022-12-09T05:44:18.405Z,100955.59
2022-12-09T05:49:18.518Z,100975.03
2022-12-09T05:54:17.920Z,100970.47
2022-12-09T05:59:18.974Z,100980.34
2022-12-09T06:04:20.128Z,100990.22
2022-12-09T06:09:20.355Z,101009.34
2022-12-09T06:14:21.432Z,101000.16
2022-12-09T06:19:21.013Z,101007.06
2022-12-09T06:24:22.531Z,100995.16
2022-12-09T06:29:23.493Z,100980.44
2022-12-09T06:34:23.832Z,100972.66
2022-12-09T06:39:23.420Z,100981.09
2022-12-09T06:44:24.545Z,100991.69
2022-12-09T06:49:24.061Z,100997.91
2022-12-09T06:54:23.693Z,100998.50
2022-12-09T06:59:25.462Z,101022.44
2022-12-09T07:04:27.044Z,101013.00
2022-12-09T07:09:26.896Z,100999.22
2022-12-09T07:14:27.678Z,101009.06
2022-12-09T07:19:29.292Z,101005.38
2022-12-09T07:24:29.764Z,100999.09
2022-12-09T07:29:33.623Z,100989.69
2022-12-09T07:34:33.314Z,101001.41
2022-12-09T07:40:01.709Z,101006.72
2022-12-09T07:45:40.229Z,100997.50
2022-12-09T07:52:08.513Z,100996.84
2022-12-09T07:57:11.393Z,100994.06
2022-12-09T08:02:14.762Z,100998.19
2022-12-09T08:07:16.465Z,100984.78
2022-12-09T08:12:19.577Z,100983.50
2022-12-09T08:17:24.596Z,100983.34
2022-12-09T08:22:28.354Z,100974.50
2022-12-09T08:54:53.606Z,100977.66
2022-12-09T08:59:57.854Z,100971.38
2022-12-09T09:05:01.654Z,100955.06
2022-12-09T09:10:03.596Z,100950.19
2022-12-09T09:15:04.608Z,100966.00
2022-12-09T09:20:09.299Z,100942.63
2022-12-09T09:25:17.053Z,100936.19
2022-12-09T09:30:19.914Z,100914.38
2022-12-09T09:35:19.975Z,100922.19
2022-12-09T09:40:29.742Z,100919.22
2022-12-09T09:45:31.992Z,100910.00
2022-12-09T09:50:37.810Z,100904.19
2022-12-09T09:55:47.574Z,100889.59
2022-12-09T10:00:56.899Z,100882.84
2022-12-09T10:06:02.884Z,100872.22
2022-12-09T10:11:19.551Z,100874.22
2022-12-09T10:16:23.972Z,100874.69
2022-12-09T10:21:43.471Z,100849.63
2022-12-09T10:27:16.631Z,100842.34
2022-12-09T10:32:29.926Z,100835.56
2022-12-09T10:37:35.345Z,100821.59
2022-12-09T10:43:10.998Z,100828.56
2022-12-09T10:48:27.928Z,100829.75
2022-12-09T10:53:35.384Z,100828.38
2022-12-09T10:58:35.907Z,100808.78
2022-12-09T11:03:55.884Z,100813.16
2022-12-09T11:09:01.126Z,100790.22
2022-12-09T11:14:03.606Z,100799.38
2022-12-09T11:19:07.650Z,100780.47
2022-12-09T11:24:26.145Z,100779.97
2022-12-09T11:29:26.718Z,100764.03
2022-12-09T11:34:29.279Z,100777.44
2022-12-09T11:39:32.539Z,100786.25
2022-12-09T11:44:35.356Z,100778.69
2022-12-09T11:49:49.931Z,100772.66
2022-12-09T11:54:57.263Z,100774.53
2022-12-09T12:00:03.489Z,100768.28
2022-12-09T12:05:21.621Z,100767.34
2022-12-09T12:10:26.790Z,100757.41
2022-12-09T12:15:34.353Z,100739.09
2022-12-09T12:21:03.964Z,100743.84
2022-12-09T12:26:10.597Z,100737.19
2022-12-09T12:31:30.546Z,100753.88
2022-12-09T12:36:40.843Z,100744.78
2022-12-09T12:41:54.500Z,100747.63
2022-12-09T12:47:05.910Z,100739.81
2022-12-09T12:52:55.577Z,100729.88
2022-12-09T12:57:55.852Z,100734.34
2022-12-09T13:03:09.602Z,100739.00
2022-12-09T13:08:21.358Z,100730.22
2022-12-09T13:13:31.197Z,100720.97
2022-12-09T13:18:36.371Z,100712.13
2022-12-09T13:23:57.954Z,100700.66
2022-12-09T13:29:12.119Z,100702.34
2022-12-09T13:34:29.230Z,100700.28
2022-12-09T13:39:59.163Z,100708.25
2022-12-09T13:45:09.670Z,100696.66
2022-12-09T13:50:26.759Z,100705.75
2022-12-09T13:55:50.475Z,100725.41
2022-12-09T14:01:06.986Z,100713.19
2022-12-09T14:06:23.839Z,100708.38
2022-12-09T14:11:52.011Z,100701.13
2022-12-09T14:16:51.940Z,100696.97
2022-12-09T14:22:24.440Z,100695.44
2022-12-09T14:27:28.901Z,100683.94
2022-12-09T14:32:31.393Z,100682.19
2022-12-09T14:37:47.529Z,100669.06
2022-12-09T14:42:53.719Z,100671.72
2022-12-09T14:47:54.610Z,100655.16
2022-12-09T14:52:59.536Z,100646.38
2022-12-09T14:58:09.745Z,100637.81
2022-12-09T15:03:36.884Z,100648.34
2022-12-09T15:08:44.312Z,100649.91
2022-12-09T15:13:49.060Z,100647.28
2022-12-09T15:18:51.935Z,100642.97
2022-12-09T15:23:52.409Z,100640.50
2022-12-09T15:28:56.603Z,100630.50
2022-12-09T15:33:59.620Z,100624.97
2022-12-09T15:39:04.242Z,100615.94
2022-12-09T15:44:11.641Z,100624.41
2022-12-09T15:49:14.976Z,100610.63
2022-12-09T15:54:20.968Z,100617.81
2022-12-09T15:59:27.156Z,100613.66
2022-12-09T16:04:31.042Z,100612.28
2022-12-09T16:09:34.856Z,100610.44
2022-12-09T16:15:00.304Z,100600.59
2022-12-09T16:20:01.530Z,100586.19
2022-12-09T16:25:17.938Z,100569.78
2022-12-09T16:30:24.832Z,100580.09
2022-12-09T16:35:27.434Z,100577.31
2022-12-09T16:41:02.200Z,100558.56
2022-12-09T16:46:39.622Z,100560.78
2022-12-09T16:51:40.659Z,100564.53
2022-12-09T16:56:41.950Z,100545.47
2022-12-09T17:01:46.776Z,100542.59
2022-12-09T17:06:46.510Z,100540.69
2022-12-09T17:11:48.983Z,100525.44
2022-12-09T17:16:55.924Z,100539.97
2022-12-09T17:21:55.846Z,100522.84
2022-12-09T17:26:56.219Z,100517.19
2022-12-09T17:31:57.500Z,100504.81
2022-12-09T17:36:58.624Z,100497.50
2022-12-09T17:41:58.411Z,100506.59
2022-12-09T17:47:01.733Z,100494.09
2022-12-09T17:52:01.755Z,100502.25
2022-12-09T17:57:01.703Z,100499.50
2022-12-09T18:02:05.693Z,100509.06
2022-12-09T18:07:06.848Z,100510.50
2022-12-09T18:12:14.190Z,100503.28
2022-12-09T18:17:17.518Z,100495.28
2022-12-09T18:22:17.471Z,100487.19
2022-12-09T18:27:17.537Z,100492.34
2022-12-09T18:32:20.124Z,100492.94
2022-12-09T18:37:20.464Z,100483.78
2022-12-09T18:42:21.369Z,100476.50
2022-12-09T18:47:24.423Z,100463.75
2022-12-09T18:52:24.081Z,100459.91
2022-12-09T18:57:30.546Z,100471.09
2022-12-09T19:02:37.022Z,100463.78
2022-12-09T19:07:36.921Z,100468.09
2022-12-09T19:12:50.634Z,100477.69
2022-12-09T19:17:55.178Z,100464.31
2022-12-09T19:22:55.467Z,100474.72
2022-12-09T19:27:55.201Z,100482.88
2022-12-09T19:32:58.264Z,100479.03
2022-12-09T19:38:01.682Z,100472.47
2022-12-09T19:43:01.289Z,100454.28
2022-12-09T19:48:05.493Z,100453.38
2022-12-09T19:53:04.870Z,100443.84
2022-12-09T19:58:05.065Z,100436.88
2022-12-09T20:03:06.880Z,100438.09
2022-12-09T20:08:15.266Z,100428.00
2022-12-09T20:13:27.198Z,100437.56
2022-12-09T20:18:48.139Z,100433.25
2022-12-09T20:23:54.584Z,100422.91
2022-12-09T20:28:58.855Z,100410.84
2022-12-09T20:34:05.263Z,100401.75
2022-12-09T20:39:11.626Z,100412.88
2022-12-09T20:44:19.039Z,100415.72
2022-12-09T20:49:27.562Z,100424.13
2022-12-09T20:54:33.688Z,100407.72
2022-12-09T20:59:33.454Z,100407.19
2022-12-09T21:04:36.473Z,100385.25
2022-12-09T21:09:39.151Z,100385.34
2022-12-09T21:14:43.380Z,100395.66
2022-12-09T21:19:44.546Z,100387.66
2022-12-09T21:24:44.294Z,100365.41
2022-12-09T21:29:48.404Z,100356.81
2022-12-09T21:34:55.783Z,100367.41
2022-12-09T21:39:55.475Z,100366.47
2022-12-09T21:44:58.246Z,100367.88
2022-12-09T21:50:04.016Z,100355.59
2022-12-09T21:55:10.770Z,100357.47
2022-12-09T22:00:22.942Z,100357.31
2022-12-09T22:05:30.635Z,100348.66
2022-12-09T22:10:42.098Z,100338.34
2022-12-09T22:15:51.159Z,100330.53
2022-12-09T22:21:26.035Z,100326.28
2022-12-09T22:26:30.567Z,100306.09
2022-12-09T22:31:40.121Z,100312.97
2022-12-09T22:36:42.212Z,100304.19
2022-12-09T22:42:01.993Z,100292.59
2022-12-09T22:47:03.875Z,100279.81
2022-12-09T22:52:10.500Z,100275.72
2022-12-09T22:57:10.898Z,100266.31
2022-12-09T23:02:12.122Z,100267.59
2022-12-09T23:07:17.730Z,100267.44
2022-12-09T23:12:27.490Z,100274.53
2022-12-09T23:17:29.182Z,100254.72
2022-12-09T23:22:36.948Z,100267.06
2022-12-09T23:27:40.801Z,100276.78
2022-12-09T23:32:45.749Z,100263.88
2022-12-09T23:37:52.791Z,100266.41
2022-12-09T23:43:01.776Z,100255.94
2022-12-09T23:48:05.204Z,100254.81
2022-12-09T23:53:11.909Z,100249.94
2022-12-09T23:58:16.968Z,100241.94
